Milan, MI (48160)

10:34 AM EST on January 31, 2015 (GMT -0500)
Covington Drive | Change Station
CLOSE
Current Station
Personal Weather Station
Location: Saline, MI
Elevation: 810 ft
Nearby Weather Stations
Active Advisory: Winter Storm Watch

Elev 810 ft 42.15 °N, 83.74 °W | Updated 4 minutes ago

Clear
Clear
24.3 °F
Feels Like 19 °F
N
4.5
Wind Variable Wind from SW
Gusts 6.0 mph

Today
High -- | Low -- °F
--% Chance of Precip.
Yesterday
High -- | Low -- °F
Precip. -- in
7:48 AM 5:47 PM
Waxing Gibbous, 90% visible
Pressure 30.31 in
Visibility 9.0 miles
Clouds Clear
Windchill 19 °F
Dew Point 12 °F
Humidity 59%
Rainfall 3.54 in
Snow Depth Not available.
UV 1 out of 12
Pollen .10 out of 12
Air Quality Not available.
Flu Activity Not available.
METAR KARB 311453Z 22009KT 9SM CLR M06/M09 A3026 RMK AO2 SLP262 T10561089 58006

More Conditions Fewer Conditions

Pressure 30.31 in
Visibility 9.0 miles
Clouds Clear
Windchill 19 °F
Dew Point 12 °F
Humidity 59%
Rainfall 3.54 in
Snow Depth Not available.
UV 1 out of 12
Pollen .10 out of 12
Air Quality Not available.
Flu Activity Not available.
METAR KARB 311453Z 22009KT 9SM CLR M06/M09 A3026 RMK AO2 SLP262 T10561089 58006

More Conditions Fewer Conditions

10-Day Weather Forecast

Almanac

Astronomy

Jan. 31, 2015 Rise Set
Actual Time
Civil Twilight
Nautical Twilight
Astronomical Twilight
Moon
Length of Visible Light
Length of Day
Tomorrow will be .
, % of the Moon is Illuminated

Today's Extremes

State Highs State Lows

Community

WunderPhotos

Upload Photos

1,792,094 photos uploaded!

WunderBlogs® & News

Nearby

Air Quality

  Air Quality AQ Index Pollutant
Not available.

Snow Depth

Station Depth Elevation

Earthquake Activity

City Distance Mag. Time & Date
Minimum magnitude displayed is 2.5.

Coastal Water Temperatures

Place Temperature

Nearby Weather Stations